sensor_id;sensor_type;location;lat;lon;timestamp;temperature;humidity
27567;DHT22;15006;48.584;9.186;2023-07-31T00:01:18;10.00;99.20
27567;DHT22;15006;48.584;9.186;2023-07-31T00:03:45;10.00;99.20
27567;DHT22;15006;48.584;9.186;2023-07-31T00:06:12;10.00;99.20
27567;DHT22;15006;48.584;9.186;2023-07-31T00:08:38;10.00;99.30
27567;DHT22;15006;48.584;9.186;2023-07-31T00:11:04;9.90;99.40
27567;DHT22;15006;48.584;9.186;2023-07-31T00:13:30;9.90;99.50
27567;DHT22;15006;48.584;9.186;2023-07-31T00:15:57;9.90;99.60
27567;DHT22;15006;48.584;9.186;2023-07-31T00:18:24;9.80;99.60
27567;DHT22;15006;48.584;9.186;2023-07-31T00:20:49;9.80;99.60
27567;DHT22;15006;48.584;9.186;2023-07-31T00:23:15;9.80;99.60
27567;DHT22;15006;48.584;9.186;2023-07-31T00:25:42;9.80;99.60
27567;DHT22;15006;48.584;9.186;2023-07-31T00:28:08;9.80;99.90
27567;DHT22;15006;48.584;9.186;2023-07-31T00:30:35;9.70;99.90
27567;DHT22;15006;48.584;9.186;2023-07-31T00:33:01;9.70;99.90
27567;DHT22;15006;48.584;9.186;2023-07-31T00:35:27;9.70;99.90
27567;DHT22;15006;48.584;9.186;2023-07-31T00:37:53;9.70;99.90
27567;DHT22;15006;48.584;9.186;2023-07-31T00:40:19;9.70;99.90
27567;DHT22;15006;48.584;9.186;2023-07-31T00:42:45;9.70;99.90
27567;DHT22;15006;48.584;9.186;2023-07-31T00:45:11;9.60;99.90
27567;DHT22;15006;48.584;9.186;2023-07-31T00:47:37;9.60;99.90
27567;DHT22;15006;48.584;9.186;2023-07-31T00:50:04;9.60;99.90
27567;DHT22;15006;48.584;9.186;2023-07-31T00:52:30;9.60;99.90
27567;DHT22;15006;48.584;9.186;2023-07-31T00:54:57;9.60;99.90
27567;DHT22;15006;48.584;9.186;2023-07-31T00:57:23;9.60;99.90
27567;DHT22;15006;48.584;9.186;2023-07-31T00:59:49;9.60;99.90
27567;DHT22;15006;48.584;9.186;2023-07-31T01:02:15;9.60;99.90
27567;DHT22;15006;48.584;9.186;2023-07-31T01:04:42;9.60;99.90
27567;DHT22;15006;48.584;9.186;2023-07-31T01:10:32;9.50;99.90
27567;DHT22;15006;48.584;9.186;2023-07-31T01:13:02;9.60;99.90
27567;DHT22;15006;48.584;9.186;2023-07-31T01:15:29;9.60;99.90
27567;DHT22;15006;48.584;9.186;2023-07-31T01:17:55;9.60;99.90
27567;DHT22;15006;48.584;9.186;2023-07-31T01:20:22;9.50;99.90
27567;DHT22;15006;48.584;9.186;2023-07-31T01:26:16;9.50;99.90
27567;DHT22;15006;48.584;9.186;2023-07-31T01:29:09;9.50;99.90
27567;DHT22;15006;48.584;9.186;2023-07-31T01:31:36;9.50;99.90
27567;DHT22;15006;48.584;9.186;2023-07-31T01:34:06;9.50;99.90
27567;DHT22;15006;48.584;9.186;2023-07-31T01:36:34;9.50;99.90
27567;DHT22;15006;48.584;9.186;2023-07-31T01:39:01;9.50;99.90
27567;DHT22;15006;48.584;9.186;2023-07-31T01:41:28;9.40;99.90
27567;DHT22;15006;48.584;9.186;2023-07-31T01:43:55;9.40;99.90
27567;DHT22;15006;48.584;9.186;2023-07-31T01:46:21;9.40;99.90
27567;DHT22;15006;48.584;9.186;2023-07-31T01:48:47;9.40;99.90
27567;DHT22;15006;48.584;9.186;2023-07-31T01:51:13;9.50;99.90
27567;DHT22;15006;48.584;9.186;2023-07-31T01:53:39;9.50;99.90
27567;DHT22;15006;48.584;9.186;2023-07-31T01:56:05;9.50;99.90
27567;DHT22;15006;48.584;9.186;2023-07-31T01:58:31;9.50;99.90
27567;DHT22;15006;48.584;9.186;2023-07-31T02:00:57;9.50;99.90
27567;DHT22;15006;48.584;9.186;2023-07-31T02:03:23;9.50;99.90
27567;DHT22;15006;48.584;9.186;2023-07-31T02:05:49;9.40;99.90
27567;DHT22;15006;48.584;9.186;2023-07-31T02:08:16;9.40;99.90
27567;DHT22;15006;48.584;9.186;2023-07-31T02:10:42;9.40;99.90
27567;DHT22;15006;48.584;9.186;2023-07-31T02:13:09;9.40;99.90
27567;DHT22;15006;48.584;9.186;2023-07-31T02:15:35;9.40;99.90
27567;DHT22;15006;48.584;9.186;2023-07-31T02:18:01;9.40;99.90
27567;DHT22;15006;48.584;9.186;2023-07-31T02:20:27;9.40;99.90
27567;DHT22;15006;48.584;9.186;2023-07-31T02:22:53;9.40;99.90
27567;DHT22;15006;48.584;9.186;2023-07-31T02:25:19;9.40;99.90
27567;DHT22;15006;48.584;9.186;2023-07-31T02:27:46;9.40;99.90
27567;DHT22;15006;48.584;9.186;2023-07-31T02:30:12;9.40;99.90
27567;DHT22;15006;48.584;9.186;2023-07-31T02:32:38;9.30;99.90
27567;DHT22;15006;48.584;9.186;2023-07-31T02:35:04;9.30;99.90
27567;DHT22;15006;48.584;9.186;2023-07-31T02:37:31;9.30;99.90
27567;DHT22;15006;48.584;9.186;2023-07-31T02:39:56;9.30;99.90
27567;DHT22;15006;48.584;9.186;2023-07-31T02:42:22;9.30;99.90
27567;DHT22;15006;48.584;9.186;2023-07-31T02:44:49;9.30;99.90
27567;DHT22;15006;48.584;9.186;2023-07-31T02:47:16;9.30;99.90
27567;DHT22;15006;48.584;9.186;2023-07-31T02:49:42;9.30;99.90
27567;DHT22;15006;48.584;9.186;2023-07-31T02:52:08;9.30;99.90
27567;DHT22;15006;48.584;9.186;2023-07-31T02:54:35;9.20;99.90
27567;DHT22;15006;48.584;9.186;2023-07-31T02:57:01;9.30;99.90
27567;DHT22;15006;48.584;9.186;2023-07-31T02:59:28;9.20;99.90
27567;DHT22;15006;48.584;9.186;2023-07-31T03:01:54;9.20;99.90
27567;DHT22;15006;48.584;9.186;2023-07-31T03:04:20;9.20;99.90
27567;DHT22;15006;48.584;9.186;2023-07-31T03:06:46;9.10;99.90
27567;DHT22;15006;48.584;9.186;2023-07-31T03:09:12;9.10;99.90
27567;DHT22;15006;48.584;9.186;2023-07-31T03:11:38;9.10;99.90
27567;DHT22;15006;48.584;9.186;2023-07-31T03:14:04;9.10;99.90
27567;DHT22;15006;48.584;9.186;2023-07-31T03:16:30;9.10;99.90
27567;DHT22;15006;48.584;9.186;2023-07-31T03:18:56;9.10;99.90
27567;DHT22;15006;48.584;9.186;2023-07-31T03:21:23;9.10;99.90
27567;DHT22;15006;48.584;9.186;2023-07-31T03:23:49;9.10;99.90
27567;DHT22;15006;48.584;9.186;2023-07-31T03:26:15;9.10;99.90
27567;DHT22;15006;48.584;9.186;2023-07-31T03:28:41;9.10;99.90
27567;DHT22;15006;48.584;9.186;2023-07-31T03:31:07;9.10;99.90
27567;DHT22;15006;48.584;9.186;2023-07-31T03:33:34;9.10;99.90
27567;DHT22;15006;48.584;9.186;2023-07-31T03:36:00;9.10;99.90
27567;DHT22;15006;48.584;9.186;2023-07-31T03:38:26;9.10;99.90
27567;DHT22;15006;48.584;9.186;2023-07-31T03:40:52;9.10;99.90
27567;DHT22;15006;48.584;9.186;2023-07-31T03:43:18;9.10;99.90
27567;DHT22;15006;48.584;9.186;2023-07-31T03:45:44;9.10;99.90
27567;DHT22;15006;48.584;9.186;2023-07-31T03:48:10;9.20;99.90
27567;DHT22;15006;48.584;9.186;2023-07-31T03:50:36;9.20;99.90
27567;DHT22;15006;48.584;9.186;2023-07-31T03:53:02;9.20;99.90
27567;DHT22;15006;48.584;9.186;2023-07-31T03:55:28;9.20;99.90
27567;DHT22;15006;48.584;9.186;2023-07-31T03:57:54;9.30;99.90
27567;DHT22;15006;48.584;9.186;2023-07-31T04:00:20;9.30;99.90
27567;DHT22;15006;48.584;9.186;2023-07-31T04:02:48;9.30;99.90
27567;DHT22;15006;48.584;9.186;2023-07-31T04:05:14;9.40;99.90
27567;DHT22;15006;48.584;9.186;2023-07-31T04:07:39;9.50;99.90
27567;DHT22;15006;48.584;9.186;2023-07-31T04:10:06;9.50;99.90
27567;DHT22;15006;48.584;9.186;2023-07-31T04:12:32;9.50;99.90
27567;DHT22;15006;48.584;9.186;2023-07-31T04:14:58;9.60;99.90
27567;DHT22;15006;48.584;9.186;2023-07-31T04:17:24;9.60;99.90
27567;DHT22;15006;48.584;9.186;2023-07-31T04:19:50;9.70;99.90
27567;DHT22;15006;48.584;9.186;2023-07-31T04:22:16;9.70;99.90
27567;DHT22;15006;48.584;9.186;2023-07-31T04:24:42;9.70;99.90
27567;DHT22;15006;48.584;9.186;2023-07-31T04:27:08;9.80;99.90
27567;DHT22;15006;48.584;9.186;2023-07-31T04:29:34;9.90;99.90
27567;DHT22;15006;48.584;9.186;2023-07-31T04:32:00;9.90;99.90
27567;DHT22;15006;48.584;9.186;2023-07-31T04:34:27;9.90;99.90
27567;DHT22;15006;48.584;9.186;2023-07-31T04:36:53;9.90;99.90
27567;DHT22;15006;48.584;9.186;2023-07-31T04:39:19;10.00;99.90
27567;DHT22;15006;48.584;9.186;2023-07-31T04:41:45;10.00;99.90
27567;DHT22;15006;48.584;9.186;2023-07-31T04:44:11;10.10;99.90
27567;DHT22;15006;48.584;9.186;2023-07-31T04:46:37;10.00;99.90
27567;DHT22;15006;48.584;9.186;2023-07-31T04:49:03;10.10;99.90
27567;DHT22;15006;48.584;9.186;2023-07-31T04:51:29;10.10;99.90
27567;DHT22;15006;48.584;9.186;2023-07-31T04:53:56;10.20;99.90
27567;DHT22;15006;48.584;9.186;2023-07-31T04:56:22;10.30;99.90
27567;DHT22;15006;48.584;9.186;2023-07-31T04:58:48;10.40;99.90
27567;DHT22;15006;48.584;9.186;2023-07-31T05:01:14;10.40;99.90
27567;DHT22;15006;48.584;9.186;2023-07-31T05:03:40;10.50;99.90
27567;DHT22;15006;48.584;9.186;2023-07-31T05:06:06;10.60;99.90
27567;DHT22;15006;48.584;9.186;2023-07-31T05:08:33;10.70;99.90
27567;DHT22;15006;48.584;9.186;2023-07-31T05:10:59;10.80;99.90
27567;DHT22;15006;48.584;9.186;2023-07-31T05:13:25;10.80;99.90
27567;DHT22;15006;48.584;9.186;2023-07-31T05:15:51;10.90;99.90
27567;DHT22;15006;48.584;9.186;2023-07-31T05:18:17;11.00;99.90
27567;DHT22;15006;48.584;9.186;2023-07-31T05:20:43;11.10;99.90
27567;DHT22;15006;48.584;9.186;2023-07-31T05:23:09;11.10;99.90
27567;DHT22;15006;48.584;9.186;2023-07-31T05:25:35;11.20;99.90
27567;DHT22;15006;48.584;9.186;2023-07-31T05:28:01;11.30;99.90
27567;DHT22;15006;48.584;9.186;2023-07-31T05:30:29;11.30;99.90
27567;DHT22;15006;48.584;9.186;2023-07-31T05:32:56;11.40;99.90
27567;DHT22;15006;48.584;9.186;2023-07-31T05:35:22;11.50;99.90
27567;DHT22;15006;48.584;9.186;2023-07-31T05:37:48;11.50;99.90
27567;DHT22;15006;48.584;9.186;2023-07-31T05:40:15;11.60;99.90
27567;DHT22;15006;48.584;9.186;2023-07-31T05:42:41;11.70;99.90
27567;DHT22;15006;48.584;9.186;2023-07-31T05:45:07;11.80;99.90
27567;DHT22;15006;48.584;9.186;2023-07-31T05:47:34;11.90;99.90
27567;DHT22;15006;48.584;9.186;2023-07-31T05:50:00;12.10;99.90
27567;DHT22;15006;48.584;9.186;2023-07-31T05:52:26;12.20;99.90
27567;DHT22;15006;48.584;9.186;2023-07-31T05:54:54;12.30;99.90
27567;DHT22;15006;48.584;9.186;2023-07-31T05:57:21;12.40;99.90
27567;DHT22;15006;48.584;9.186;2023-07-31T05:59:47;12.50;99.90
27567;DHT22;15006;48.584;9.186;2023-07-31T06:02:13;12.60;99.90
27567;DHT22;15006;48.584;9.186;2023-07-31T06:04:39;12.80;99.30
27567;DHT22;15006;48.584;9.186;2023-07-31T06:07:05;12.90;98.40
27567;DHT22;15006;48.584;9.186;2023-07-31T06:09:31;13.00;98.40
27567;DHT22;15006;48.584;9.186;2023-07-31T06:11:57;13.10;98.70
27567;DHT22;15006;48.584;9.186;2023-07-31T06:14:23;13.20;98.60
27567;DHT22;15006;48.584;9.186;2023-07-31T06:16:49;13.20;98.00
27567;DHT22;15006;48.584;9.186;2023-07-31T06:19:15;13.30;98.00
27567;DHT22;15006;48.584;9.186;2023-07-31T06:21:41;13.40;97.60
27567;DHT22;15006;48.584;9.186;2023-07-31T06:24:08;13.50;97.20
27567;DHT22;15006;48.584;9.186;2023-07-31T06:26:34;13.60;96.70
27567;DHT22;15006;48.584;9.186;2023-07-31T06:29:00;13.60;95.30
27567;DHT22;15006;48.584;9.186;2023-07-31T06:31:27;13.70;95.20
27567;DHT22;15006;48.584;9.186;2023-07-31T06:33:54;13.70;95.40
27567;DHT22;15006;48.584;9.186;2023-07-31T06:36:20;13.80;94.40
27567;DHT22;15006;48.584;9.186;2023-07-31T06:38:46;13.80;94.10
27567;DHT22;15006;48.584;9.186;2023-07-31T06:41:12;13.80;94.40
27567;DHT22;15006;48.584;9.186;2023-07-31T06:43:38;13.80;94.30
27567;DHT22;15006;48.584;9.186;2023-07-31T06:46:05;13.80;94.70
27567;DHT22;15006;48.584;9.186;2023-07-31T06:48:33;14.00;94.90
27567;DHT22;15006;48.584;9.186;2023-07-31T06:51:00;14.20;95.60
27567;DHT22;15006;48.584;9.186;2023-07-31T06:53:27;14.30;95.40
27567;DHT22;15006;48.584;9.186;2023-07-31T06:55:53;14.50;94.70
27567;DHT22;15006;48.584;9.186;2023-07-31T06:58:20;14.70;93.50
27567;DHT22;15006;48.584;9.186;2023-07-31T07:00:47;14.80;92.40
27567;DHT22;15006;48.584;9.186;2023-07-31T07:03:14;15.00;91.90
27567;DHT22;15006;48.584;9.186;2023-07-31T07:05:42;15.20;91.50
27567;DHT22;15006;48.584;9.186;2023-07-31T07:08:08;15.40;90.60
27567;DHT22;15006;48.584;9.186;2023-07-31T07:10:34;15.50;89.50
27567;DHT22;15006;48.584;9.186;2023-07-31T07:13:00;15.60;90.30
27567;DHT22;15006;48.584;9.186;2023-07-31T07:15:26;15.70;88.10
27567;DHT22;15006;48.584;9.186;2023-07-31T07:17:53;15.70;86.10
27567;DHT22;15006;48.584;9.186;2023-07-31T07:20:19;15.80;87.10
27567;DHT22;15006;48.584;9.186;2023-07-31T07:22:45;15.90;86.00
27567;DHT22;15006;48.584;9.186;2023-07-31T07:25:11;15.90;86.50
27567;DHT22;15006;48.584;9.186;2023-07-31T07:27:37;16.00;85.90
27567;DHT22;15006;48.584;9.186;2023-07-31T07:30:04;16.10;85.80
27567;DHT22;15006;48.584;9.186;2023-07-31T07:32:30;16.10;82.00
27567;DHT22;15006;48.584;9.186;2023-07-31T07:34:56;16.20;81.80
27567;DHT22;15006;48.584;9.186;2023-07-31T07:37:22;16.20;81.40
27567;DHT22;15006;48.584;9.186;2023-07-31T07:39:49;16.20;82.20
27567;DHT22;15006;48.584;9.186;2023-07-31T07:42:15;16.20;81.90
27567;DHT22;15006;48.584;9.186;2023-07-31T07:44:41;16.20;80.00
27567;DHT22;15006;48.584;9.186;2023-07-31T07:47:07;16.20;80.90
27567;DHT22;15006;48.584;9.186;2023-07-31T07:49:34;16.20;80.10
27567;DHT22;15006;48.584;9.186;2023-07-31T07:52:01;16.20;81.80
27567;DHT22;15006;48.584;9.186;2023-07-31T07:54:28;16.30;82.00
27567;DHT22;15006;48.584;9.186;2023-07-31T07:56:54;16.40;80.40
27567;DHT22;15006;48.584;9.186;2023-07-31T07:59:20;16.50;80.20
27567;DHT22;15006;48.584;9.186;2023-07-31T08:01:46;16.60;80.30
27567;DHT22;15006;48.584;9.186;2023-07-31T08:04:12;16.80;80.80
27567;DHT22;15006;48.584;9.186;2023-07-31T08:06:38;17.00;78.10
27567;DHT22;15006;48.584;9.186;2023-07-31T08:09:04;17.10;74.00
27567;DHT22;15006;48.584;9.186;2023-07-31T08:11:35;17.20;74.40
27567;DHT22;15006;48.584;9.186;2023-07-31T08:14:01;17.30;74.50
27567;DHT22;15006;48.584;9.186;2023-07-31T08:16:28;17.40;75.90
27567;DHT22;15006;48.584;9.186;2023-07-31T08:18:54;17.50;73.60
27567;DHT22;15006;48.584;9.186;2023-07-31T08:21:21;17.70;73.50
27567;DHT22;15006;48.584;9.186;2023-07-31T08:23:47;17.90;75.60
27567;DHT22;15006;48.584;9.186;2023-07-31T08:26:18;18.10;76.50
27567;DHT22;15006;48.584;9.186;2023-07-31T08:28:44;18.40;70.60
27567;DHT22;15006;48.584;9.186;2023-07-31T08:31:11;18.60;71.40
27567;DHT22;15006;48.584;9.186;2023-07-31T08:33:37;18.70;69.30
27567;DHT22;15006;48.584;9.186;2023-07-31T08:36:04;18.80;67.80
27567;DHT22;15006;48.584;9.186;2023-07-31T08:38:30;18.90;66.90
27567;DHT22;15006;48.584;9.186;2023-07-31T08:40:57;19.00;66.60
27567;DHT22;15006;48.584;9.186;2023-07-31T08:43:26;19.10;66.00
27567;DHT22;15006;48.584;9.186;2023-07-31T08:45:53;19.20;61.20
27567;DHT22;15006;48.584;9.186;2023-07-31T08:48:22;19.30;59.70
27567;DHT22;15006;48.584;9.186;2023-07-31T08:50:48;19.30;60.90
27567;DHT22;15006;48.584;9.186;2023-07-31T08:53:15;19.40;61.90
27567;DHT22;15006;48.584;9.186;2023-07-31T08:55:42;19.30;63.30
27567;DHT22;15006;48.584;9.186;2023-07-31T08:58:09;19.50;62.90
27567;DHT22;15006;48.584;9.186;2023-07-31T09:00:40;19.60;61.60
27567;DHT22;15006;48.584;9.186;2023-07-31T09:03:09;19.60;61.30
27567;DHT22;15006;48.584;9.186;2023-07-31T09:05:42;19.60;62.50
27567;DHT22;15006;48.584;9.186;2023-07-31T09:08:10;19.60;60.70
27567;DHT22;15006;48.584;9.186;2023-07-31T09:10:42;19.50;61.40
27567;DHT22;15006;48.584;9.186;2023-07-31T09:13:09;19.40;59.00
27567;DHT22;15006;48.584;9.186;2023-07-31T09:15:36;19.30;61.60
27567;DHT22;15006;48.584;9.186;2023-07-31T09:18:05;19.20;60.70
27567;DHT22;15006;48.584;9.186;2023-07-31T09:20:32;19.20;61.90
27567;DHT22;15006;48.584;9.186;2023-07-31T09:23:14;19.30;61.70
27567;DHT22;15006;48.584;9.186;2023-07-31T09:25:43;19.40;58.20
27567;DHT22;15006;48.584;9.186;2023-07-31T09:28:11;19.60;59.90
27567;DHT22;15006;48.584;9.186;2023-07-31T09:30:50;19.70;61.30
27567;DHT22;15006;48.584;9.186;2023-07-31T09:33:18;19.80;59.40
27567;DHT22;15006;48.584;9.186;2023-07-31T09:35:45;19.90;61.30
27567;DHT22;15006;48.584;9.186;2023-07-31T09:38:14;20.00;60.30
27567;DHT22;15006;48.584;9.186;2023-07-31T09:43:11;20.00;60.10
27567;DHT22;15006;48.584;9.186;2023-07-31T09:45:40;19.90;59.80
27567;DHT22;15006;48.584;9.186;2023-07-31T09:48:25;19.80;59.80
27567;DHT22;15006;48.584;9.186;2023-07-31T09:50:54;19.80;60.30
27567;DHT22;15006;48.584;9.186;2023-07-31T09:53:28;19.70;61.90
27567;DHT22;15006;48.584;9.186;2023-07-31T09:55:58;19.60;60.50
27567;DHT22;15006;48.584;9.186;2023-07-31T09:58:28;19.50;61.00
27567;DHT22;15006;48.584;9.186;2023-07-31T10:00:55;19.50;61.40
27567;DHT22;15006;48.584;9.186;2023-07-31T10:03:23;19.40;63.90
27567;DHT22;15006;48.584;9.186;2023-07-31T10:05:51;19.40;64.00
27567;DHT22;15006;48.584;9.186;2023-07-31T10:08:21;19.30;59.70
27567;DHT22;15006;48.584;9.186;2023-07-31T10:10:52;19.30;58.10
27567;DHT22;15006;48.584;9.186;2023-07-31T10:13:18;19.20;58.60
27567;DHT22;15006;48.584;9.186;2023-07-31T10:15:48;19.10;58.90
27567;DHT22;15006;48.584;9.186;2023-07-31T10:18:15;19.10;60.60
27567;DHT22;15006;48.584;9.186;2023-07-31T10:20:41;19.10;59.20
27567;DHT22;15006;48.584;9.186;2023-07-31T10:23:08;19.10;60.60
27567;DHT22;15006;48.584;9.186;2023-07-31T10:25:35;19.30;62.40
27567;DHT22;15006;48.584;9.186;2023-07-31T10:28:02;19.50;61.90
27567;DHT22;15006;48.584;9.186;2023-07-31T10:30:30;19.70;61.90
27567;DHT22;15006;48.584;9.186;2023-07-31T10:32:58;19.90;60.90
27567;DHT22;15006;48.584;9.186;2023-07-31T10:35:25;20.20;61.10
27567;DHT22;15006;48.584;9.186;2023-07-31T10:37:51;20.40;58.70
27567;DHT22;15006;48.584;9.186;2023-07-31T10:40:19;20.70;59.60
27567;DHT22;15006;48.584;9.186;2023-07-31T10:42:52;20.90;58.70
27567;DHT22;15006;48.584;9.186;2023-07-31T10:45:34;21.10;58.00
27567;DHT22;15006;48.584;9.186;2023-07-31T10:48:20;21.40;56.70
27567;DHT22;15006;48.584;9.186;2023-07-31T10:50:56;21.70;55.90
27567;DHT22;15006;48.584;9.186;2023-07-31T10:56:00;22.20;58.10
27567;DHT22;15006;48.584;9.186;2023-07-31T10:58:29;22.40;57.10
27567;DHT22;15006;48.584;9.186;2023-07-31T11:00:59;22.50;56.10
27567;DHT22;15006;48.584;9.186;2023-07-31T11:03:29;22.50;56.20
27567;DHT22;15006;48.584;9.186;2023-07-31T11:06:10;22.50;54.00
27567;DHT22;15006;48.584;9.186;2023-07-31T11:08:45;22.40;53.60
27567;DHT22;15006;48.584;9.186;2023-07-31T11:11:13;22.30;51.60
27567;DHT22;15006;48.584;9.186;2023-07-31T11:13:47;22.20;54.70
27567;DHT22;15006;48.584;9.186;2023-07-31T11:16:19;22.20;55.50
27567;DHT22;15006;48.584;9.186;2023-07-31T11:18:48;22.30;55.70
27567;DHT22;15006;48.584;9.186;2023-07-31T11:21:16;22.40;54.60
27567;DHT22;15006;48.584;9.186;2023-07-31T11:23:48;22.40;54.00
27567;DHT22;15006;48.584;9.186;2023-07-31T11:26:20;22.40;53.20
27567;DHT22;15006;48.584;9.186;2023-07-31T11:28:50;22.30;53.30
27567;DHT22;15006;48.584;9.186;2023-07-31T11:31:17;22.10;53.80
27567;DHT22;15006;48.584;9.186;2023-07-31T11:33:44;22.10;54.40
27567;DHT22;15006;48.584;9.186;2023-07-31T11:36:18;21.90;54.20
27567;DHT22;15006;48.584;9.186;2023-07-31T11:38:45;21.90;53.50
27567;DHT22;15006;48.584;9.186;2023-07-31T11:41:14;21.80;53.80
27567;DHT22;15006;48.584;9.186;2023-07-31T11:43:41;21.70;54.50
27567;DHT22;15006;48.584;9.186;2023-07-31T11:46:07;21.70;54.60
27567;DHT22;15006;48.584;9.186;2023-07-31T11:48:36;21.70;54.80
27567;DHT22;15006;48.584;9.186;2023-07-31T11:51:05;21.60;54.80
27567;DHT22;15006;48.584;9.186;2023-07-31T11:56:08;21.60;53.60
27567;DHT22;15006;48.584;9.186;2023-07-31T11:58:38;21.60;54.30
27567;DHT22;15006;48.584;9.186;2023-07-31T12:01:05;21.50;54.60
27567;DHT22;15006;48.584;9.186;2023-07-31T12:03:32;21.40;54.60
27567;DHT22;15006;48.584;9.186;2023-07-31T12:05:59;21.30;54.90
27567;DHT22;15006;48.584;9.186;2023-07-31T12:08:26;21.30;55.20
27567;DHT22;15006;48.584;9.186;2023-07-31T12:10:53;21.20;54.90
27567;DHT22;15006;48.584;9.186;2023-07-31T12:13:25;21.10;55.40
27567;DHT22;15006;48.584;9.186;2023-07-31T12:16:00;21.00;54.80
27567;DHT22;15006;48.584;9.186;2023-07-31T12:18:29;20.90;54.60
27567;DHT22;15006;48.584;9.186;2023-07-31T12:21:06;20.80;54.90
27567;DHT22;15006;48.584;9.186;2023-07-31T12:23:35;20.60;55.50
27567;DHT22;15006;48.584;9.186;2023-07-31T12:26:07;20.50;56.40
27567;DHT22;15006;48.584;9.186;2023-07-31T12:31:10;20.30;57.30
27567;DHT22;15006;48.584;9.186;2023-07-31T12:33:38;20.20;58.70
27567;DHT22;15006;48.584;9.186;2023-07-31T12:36:09;20.10;59.40
27567;DHT22;15006;48.584;9.186;2023-07-31T12:38:37;20.00;58.90
27567;DHT22;15006;48.584;9.186;2023-07-31T12:41:02;19.90;59.70
27567;DHT22;15006;48.584;9.186;2023-07-31T12:43:29;19.80;60.60
27567;DHT22;15006;48.584;9.186;2023-07-31T12:45:57;19.80;60.40
27567;DHT22;15006;48.584;9.186;2023-07-31T12:48:23;19.70;60.60
27567;DHT22;15006;48.584;9.186;2023-07-31T12:50:49;19.70;60.90
27567;DHT22;15006;48.584;9.186;2023-07-31T12:53:15;19.70;62.50
27567;DHT22;15006;48.584;9.186;2023-07-31T12:55:42;19.70;64.40
27567;DHT22;15006;48.584;9.186;2023-07-31T12:58:08;19.80;63.40
27567;DHT22;15006;48.584;9.186;2023-07-31T13:00:34;19.90;65.10
27567;DHT22;15006;48.584;9.186;2023-07-31T13:03:00;20.10;63.50
27567;DHT22;15006;48.584;9.186;2023-07-31T13:05:28;20.30;63.90
27567;DHT22;15006;48.584;9.186;2023-07-31T13:07:54;20.50;63.70
27567;DHT22;15006;48.584;9.186;2023-07-31T13:10:20;20.70;64.50
27567;DHT22;15006;48.584;9.186;2023-07-31T13:12:48;21.00;63.20
27567;DHT22;15006;48.584;9.186;2023-07-31T13:15:14;21.30;64.20
27567;DHT22;15006;48.584;9.186;2023-07-31T13:17:41;21.60;66.00
27567;DHT22;15006;48.584;9.186;2023-07-31T13:20:09;22.10;64.80
27567;DHT22;15006;48.584;9.186;2023-07-31T13:22:35;22.60;62.30
27567;DHT22;15006;48.584;9.186;2023-07-31T13:25:01;23.00;60.80
27567;DHT22;15006;48.584;9.186;2023-07-31T13:27:28;23.30;58.90
27567;DHT22;15006;48.584;9.186;2023-07-31T13:29:54;23.50;56.50
27567;DHT22;15006;48.584;9.186;2023-07-31T13:32:21;23.60;56.60
27567;DHT22;15006;48.584;9.186;2023-07-31T13:34:47;23.70;55.30
27567;DHT22;15006;48.584;9.186;2023-07-31T13:37:14;23.60;55.10
27567;DHT22;15006;48.584;9.186;2023-07-31T13:39:40;23.50;55.30
27567;DHT22;15006;48.584;9.186;2023-07-31T13:42:08;23.40;52.60
27567;DHT22;15006;48.584;9.186;2023-07-31T13:44:35;23.20;53.40
27567;DHT22;15006;48.584;9.186;2023-07-31T13:47:01;23.00;53.10
27567;DHT22;15006;48.584;9.186;2023-07-31T13:49:29;22.70;53.30
27567;DHT22;15006;48.584;9.186;2023-07-31T13:51:55;22.40;52.30
27567;DHT22;15006;48.584;9.186;2023-07-31T13:55:19;22.10;52.70
27567;DHT22;15006;48.584;9.186;2023-07-31T13:58:07;21.70;52.80
27567;DHT22;15006;48.584;9.186;2023-07-31T14:00:33;21.50;52.50
27567;DHT22;15006;48.584;9.186;2023-07-31T14:03:00;21.20;53.10
27567;DHT22;15006;48.584;9.186;2023-07-31T14:05:26;20.90;53.20
27567;DHT22;15006;48.584;9.186;2023-07-31T14:07:52;20.70;53.60
27567;DHT22;15006;48.584;9.186;2023-07-31T14:10:18;20.40;53.80
27567;DHT22;15006;48.584;9.186;2023-07-31T14:12:44;20.20;54.30
27567;DHT22;15006;48.584;9.186;2023-07-31T14:15:10;20.00;54.40
27567;DHT22;15006;48.584;9.186;2023-07-31T14:17:37;19.90;55.10
27567;DHT22;15006;48.584;9.186;2023-07-31T14:20:03;19.80;54.90
27567;DHT22;15006;48.584;9.186;2023-07-31T14:22:31;19.60;55.80
27567;DHT22;15006;48.584;9.186;2023-07-31T14:24:59;19.50;56.60
27567;DHT22;15006;48.584;9.186;2023-07-31T14:27:25;19.40;56.70
27567;DHT22;15006;48.584;9.186;2023-07-31T14:29:51;19.40;56.90
27567;DHT22;15006;48.584;9.186;2023-07-31T14:32:17;19.30;56.50
27567;DHT22;15006;48.584;9.186;2023-07-31T14:34:43;19.20;57.70
27567;DHT22;15006;48.584;9.186;2023-07-31T14:37:09;19.20;58.00
27567;DHT22;15006;48.584;9.186;2023-07-31T14:39:35;19.20;57.90
27567;DHT22;15006;48.584;9.186;2023-07-31T14:42:01;19.20;57.90
27567;DHT22;15006;48.584;9.186;2023-07-31T14:44:28;19.10;58.50
27567;DHT22;15006;48.584;9.186;2023-07-31T14:46:54;19.10;58.50
27567;DHT22;15006;48.584;9.186;2023-07-31T14:49:20;19.10;58.60
27567;DHT22;15006;48.584;9.186;2023-07-31T14:51:46;19.10;59.20
27567;DHT22;15006;48.584;9.186;2023-07-31T14:54:12;19.10;59.30
27567;DHT22;15006;48.584;9.186;2023-07-31T14:56:38;19.00;59.60
27567;DHT22;15006;48.584;9.186;2023-07-31T14:59:04;19.00;59.60
27567;DHT22;15006;48.584;9.186;2023-07-31T15:01:30;19.00;59.90
27567;DHT22;15006;48.584;9.186;2023-07-31T15:03:56;19.00;60.00
27567;DHT22;15006;48.584;9.186;2023-07-31T15:06:22;19.00;59.70
27567;DHT22;15006;48.584;9.186;2023-07-31T15:08:48;19.00;59.40
27567;DHT22;15006;48.584;9.186;2023-07-31T15:11:14;19.00;58.90
27567;DHT22;15006;48.584;9.186;2023-07-31T15:13:41;18.90;59.00
27567;DHT22;15006;48.584;9.186;2023-07-31T15:16:07;18.90;59.30
27567;DHT22;15006;48.584;9.186;2023-07-31T15:18:33;18.90;59.90
27567;DHT22;15006;48.584;9.186;2023-07-31T15:20:59;18.90;59.50
27567;DHT22;15006;48.584;9.186;2023-07-31T15:23:25;18.90;59.50
27567;DHT22;15006;48.584;9.186;2023-07-31T15:25:52;18.90;59.70
27567;DHT22;15006;48.584;9.186;2023-07-31T15:28:18;18.90;59.90
27567;DHT22;15006;48.584;9.186;2023-07-31T15:30:45;18.90;60.00
27567;DHT22;15006;48.584;9.186;2023-07-31T15:33:11;18.90;60.30
27567;DHT22;15006;48.584;9.186;2023-07-31T15:35:37;19.00;60.20
27567;DHT22;15006;48.584;9.186;2023-07-31T15:38:03;19.00;60.30
27567;DHT22;15006;48.584;9.186;2023-07-31T15:40:29;19.00;60.90
27567;DHT22;15006;48.584;9.186;2023-07-31T15:42:55;19.10;60.70
27567;DHT22;15006;48.584;9.186;2023-07-31T15:45:21;19.10;61.50
27567;DHT22;15006;48.584;9.186;2023-07-31T15:47:48;19.20;61.30
27567;DHT22;15006;48.584;9.186;2023-07-31T15:50:14;19.30;60.90
27567;DHT22;15006;48.584;9.186;2023-07-31T15:52:40;19.40;60.30